Terminal Aerodrome Forecast
Issued by NWS

Home | Current Version | Previous Version | Graphics & Text | Print | Product List | Glossary Off
Versions: 1 2 3 4 5 6 7 8 9 10 11 12 13

920
FTUS45 KGGW 110531
TAFSDY
TAF
KSDY 110531Z 1106/1206 10005KT 5SM -SHSN OVC035
     FM111100 33004KT 3SM -SHSN BKN013
     FM120500 VRB03KT P6SM OVC014=

USA.gov is the U.S. government's official web portal to all federal, state and local government web resources and services.